Huvudsida
METAR-TAF:

METAR-TAF

Flygplatser :

Budapest-Ferenc Liszts internationella flygplats

Budapest, Ungern

latitud: 47-26N, longitud: 019-16E, höjd: 151 m

Aktuellt väderrapport

Denna rapport gjordes för 24 minuter sedan, klockan 23:00 UTC
Vind 5 kt från nordost, varierande mellan nord och ost
Temperatur 10°C
Fuktighet 57%
Tryck 1029 hPa
Sikt 10 km eller mer
Inga moln under 1 500 m eller inga cumulonimbus

METAR: LHBP 222300Z 05005KT 010V080 CAVOK 10/02 Q1029 NOSIG

Tid: 00:24 (23:24 UTC)

Väderprognos

Denna rapport gjordes för 6 timmar och 9 minuter sedan, klockan 17:15 UTC
Prognos gäller från 22 kl. 18 UTC till 23 kl. 18 UTC
Vind 3 kt varierande vindriktning
Sikt 10 km eller mer
Inga moln under 1 500 m eller inga cumulonimbus
Temporärt
från 23 kl. 00 UTC till 23 kl. 04 UTC
Vind 7 kt från ost/nordost

TAF: LHBP 221715Z 2218/2318 VRB03KT CAVOK TEMPO 2300/2304 07007KT

Aktuella väderrapporter och prognoser från 4000 flygplatser (METAR- och TAF-rapporter).

De tillgängliga stationerna syns som gula och röda prickar på kartan.

För musen över prickarna för att se namnen på stationerna.

Klicka sedan för att få väderrapporter och prognoser.

För att ändra kartan: Klicka på de gröna knapparna med ett svart kors på för att zooma in; den gröna knappen med ett streck på för att zooma ut; eller på de gröna pilarna för angränsande kartor.


METAR-TAF: